This is the latest recevied weather packets stored in our database for station/object TG8AKV-17. If no packets are shown the sender has not sent any weather packets the latest 10 day(s).
| Time | Temp. | Humidity | Pressure | Rain* | Wind** | Luminosity | Snow |
|---|---|---|---|---|---|---|---|
| 1777955227 | 12.22° C | 92% | 1019 hPa | 0 mm | - | - | - |
| 1777954626 | 12.22° C | 93% | 1019 hPa | 0 mm | - | - | - |
| 1777954025 | 12.22° C | 94% | 1019 hPa | 0 mm | - | - | - |
| 1777953424 | 12.22° C | 94% | 1019 hPa | 0 mm | - | - | - |
| 1777946963 | 14.44° C | 92% | 1017 hPa | 0 mm | - | - | - |
| 1777946362 | 14.44° C | 92% | 1017 hPa | 0 mm | - | - | - |
| 1777945762 | 14.44° C | 92% | 1017 hPa | 0 mm | - | - | - |
| 1777945161 | 14.44° C | 92% | 1017 hPa | 0 mm | - | - | - |
| 1777944560 | 15° C | 91% | 1016 hPa | 0 mm | - | - | - |
| 1777943960 | 15° C | 90% | 1016 hPa | 0 mm | - | - | - |
| 1777943359 | 15.56° C | 88% | 1016 hPa | 0 mm | - | - | - |
| 1777942759 | 15.56° C | 88% | 1016 hPa | 0 mm | - | - | - |
| 1777942158 | 15.56° C | 89% | 1016 hPa | 0 mm | - | - | - |
| 1777941557 | 15.56° C | 90% | 1016 hPa | 0 mm | - | - | - |
| 1777940957 | 15.56° C | 89% | 1015 hPa | 0 mm | - | - | - |
| 1777940356 | 18.33° C | 85% | 1015 hPa | 0 mm | - | - | - |
| 1777939755 | 18.33° C | 86% | 1015 hPa | 0 mm | - | - | - |
| 1777939155 | 17.78° C | 87% | 1015 hPa | 0 mm | - | - | - |
| 1777938554 | 17.78° C | 87% | 1015 hPa | 0 mm | - | - | - |
| 1777937954 | 17.78° C | 87% | 1015 hPa | 0 mm | - | - | - |
| 1777937353 | 17.78° C | 87% | 1014 hPa | 0 mm | - | - | - |
| 1777936752 | 18.33° C | 87% | 1014 hPa | 0 mm | - | - | - |
| 1777936152 | 18.33° C | 87% | 1014 hPa | 0 mm | - | - | - |
| 1777935551 | 18.33° C | 88% | 1014 hPa | 0 mm | - | - | - |
| 1777934950 | 18.33° C | 90% | 1014 hPa | 0 mm | - | - | - |
* Rain latest hour (hover to see other rain measurements)
** Current wind speed in m/s (hover to see current wind gust speed)